PACV METAR and TAF weather

Enter ICAO airport designator
Station Type Date Time Source
PACV METAR 2020/07/10 15:53 UTC NOAA

PACV 101553Z 05003KT 10SM SCT018 BKN028 OVC041 12/09 A2977 RMK AO2 RAB22E50 SLP082 P0000 T01170094


Station Type Date Time Source
PACV Decoded METAR 2020/07/10 15:53 UTC NOAA

MERLE K. SMITH AIRPORT, AK, United States (PACV) 60-30N 145-29W 13M
Jul 10, 2020 - 11:53 AM EDT / 2020.07.10 1553 UTC
Wind: from the NE (050 degrees) at 3 MPH (3 KT):0
Visibility: 10 mile(s):0
Sky conditions: overcast
Precipitation last hour: A trace
Temperature: 53.1 F (11.7 C)
Dew Point: 48.9 F (9.4 C)
Relative Humidity: 85%
Pressure (altimeter): 29.77 in. Hg (1008 hPa)
ob: PACV 101553Z 05003KT 10SM SCT018 BKN028 OVC041 12/09 A2977 RMK AO2 RAB22E50 SLP082 P0000 T01170094
cycle: 16

Station Type Date Time Source
PACV TAF 2020/07/10 15:03 UTC NOAA

TAF
AMD PACV 101501Z 1015/1112 00000KT P6SM SCT018 BKN030
TEMPO 1015/1018 BKN018
FM102100 24011KT P6SM VCSH FEW030 BKN070
FM110200 24004KT P6SM VCSH FEW020 BKN030
FM110800 VRB03KT P6SM VCSH BKN015 OVC025

Example: see airport list